sensor_id;sensor_type;location;lat;lon;timestamp;temperature;humidity
13944;DHT22;7044;53.286;8.534;2022-09-09T00:01:23;16.10;99.90
13944;DHT22;7044;53.286;8.534;2022-09-09T00:03:56;16.00;99.90
13944;DHT22;7044;53.286;8.534;2022-09-09T00:06:28;16.00;99.90
13944;DHT22;7044;53.286;8.534;2022-09-09T00:09:01;16.00;99.90
13944;DHT22;7044;53.286;8.534;2022-09-09T00:11:36;16.00;99.90
13944;DHT22;7044;53.286;8.534;2022-09-09T00:14:13;15.90;99.90
13944;DHT22;7044;53.286;8.534;2022-09-09T00:16:46;15.90;99.90
13944;DHT22;7044;53.286;8.534;2022-09-09T00:19:20;15.90;99.90
13944;DHT22;7044;53.286;8.534;2022-09-09T00:21:53;15.80;99.90
13944;DHT22;7044;53.286;8.534;2022-09-09T00:24:27;15.90;99.90
13944;DHT22;7044;53.286;8.534;2022-09-09T00:27:02;15.80;99.90
13944;DHT22;7044;53.286;8.534;2022-09-09T00:29:35;15.80;99.90
13944;DHT22;7044;53.286;8.534;2022-09-09T00:32:11;15.70;99.90
13944;DHT22;7044;53.286;8.534;2022-09-09T00:34:48;15.80;99.90
13944;DHT22;7044;53.286;8.534;2022-09-09T00:37:15;15.00;99.90
13944;DHT22;7044;53.286;8.534;2022-09-09T00:39:44;15.70;99.90
13944;DHT22;7044;53.286;8.534;2022-09-09T00:42:16;16.00;99.90
13944;DHT22;7044;53.286;8.534;2022-09-09T00:44:52;15.60;99.90
13944;DHT22;7044;53.286;8.534;2022-09-09T00:47:39;15.50;99.90
13944;DHT22;7044;53.286;8.534;2022-09-09T00:50:22;15.60;99.90
13944;DHT22;7044;53.286;8.534;2022-09-09T00:53:00;15.60;99.90
13944;DHT22;7044;53.286;8.534;2022-09-09T00:55:37;15.60;99.90
13944;DHT22;7044;53.286;8.534;2022-09-09T00:58:08;15.50;99.90
13944;DHT22;7044;53.286;8.534;2022-09-09T01:00:41;15.60;99.90
13944;DHT22;7044;53.286;8.534;2022-09-09T01:03:21;15.50;99.90
13944;DHT22;7044;53.286;8.534;2022-09-09T01:05:56;15.50;99.90
13944;DHT22;7044;53.286;8.534;2022-09-09T01:08:39;15.50;99.90
13944;DHT22;7044;53.286;8.534;2022-09-09T01:11:12;15.70;99.90
13944;DHT22;7044;53.286;8.534;2022-09-09T01:13:45;15.70;99.90
13944;DHT22;7044;53.286;8.534;2022-09-09T01:16:16;15.60;99.90
13944;DHT22;7044;53.286;8.534;2022-09-09T01:18:46;15.50;99.90
13944;DHT22;7044;53.286;8.534;2022-09-09T01:21:22;15.60;99.90
13944;DHT22;7044;53.286;8.534;2022-09-09T01:24:07;15.40;99.90
13944;DHT22;7044;53.286;8.534;2022-09-09T01:26:39;15.50;99.90
13944;DHT22;7044;53.286;8.534;2022-09-09T01:29:08;15.80;99.90
13944;DHT22;7044;53.286;8.534;2022-09-09T01:31:38;15.60;99.90
13944;DHT22;7044;53.286;8.534;2022-09-09T01:34:10;15.40;99.90
13944;DHT22;7044;53.286;8.534;2022-09-09T01:36:41;15.50;99.90
13944;DHT22;7044;53.286;8.534;2022-09-09T01:39:10;15.30;99.90
13944;DHT22;7044;53.286;8.534;2022-09-09T01:41:39;15.50;99.90
13944;DHT22;7044;53.286;8.534;2022-09-09T01:44:06;15.50;99.90
13944;DHT22;7044;53.286;8.534;2022-09-09T01:46:34;15.50;99.90
13944;DHT22;7044;53.286;8.534;2022-09-09T01:49:03;15.50;99.90
13944;DHT22;7044;53.286;8.534;2022-09-09T01:51:30;15.60;99.90
13944;DHT22;7044;53.286;8.534;2022-09-09T01:53:57;15.50;99.90
13944;DHT22;7044;53.286;8.534;2022-09-09T01:56:34;15.20;99.90
13944;DHT22;7044;53.286;8.534;2022-09-09T01:59:16;15.30;99.90
13944;DHT22;7044;53.286;8.534;2022-09-09T02:01:53;15.30;99.90
13944;DHT22;7044;53.286;8.534;2022-09-09T02:04:35;15.30;99.90
13944;DHT22;7044;53.286;8.534;2022-09-09T02:07:06;16.00;99.90
13944;DHT22;7044;53.286;8.534;2022-09-09T02:09:38;15.10;99.90
13944;DHT22;7044;53.286;8.534;2022-09-09T02:12:10;15.30;99.90
13944;DHT22;7044;53.286;8.534;2022-09-09T02:14:42;15.40;99.90
13944;DHT22;7044;53.286;8.534;2022-09-09T02:17:15;15.20;99.90
13944;DHT22;7044;53.286;8.534;2022-09-09T02:19:46;15.40;99.90
13944;DHT22;7044;53.286;8.534;2022-09-09T02:22:16;15.20;99.90
13944;DHT22;7044;53.286;8.534;2022-09-09T02:24:44;15.30;99.90
13944;DHT22;7044;53.286;8.534;2022-09-09T02:27:12;15.10;99.90
13944;DHT22;7044;53.286;8.534;2022-09-09T02:29:42;15.10;99.90
13944;DHT22;7044;53.286;8.534;2022-09-09T02:32:14;15.10;99.90
13944;DHT22;7044;53.286;8.534;2022-09-09T02:34:45;15.10;99.90
13944;DHT22;7044;53.286;8.534;2022-09-09T02:37:16;15.20;99.90
13944;DHT22;7044;53.286;8.534;2022-09-09T02:39:44;15.20;99.90
13944;DHT22;7044;53.286;8.534;2022-09-09T02:42:10;15.10;99.90
13944;DHT22;7044;53.286;8.534;2022-09-09T02:44:41;15.10;99.90
13944;DHT22;7044;53.286;8.534;2022-09-09T02:47:25;15.00;99.90
13944;DHT22;7044;53.286;8.534;2022-09-09T02:50:03;16.40;99.90
13944;DHT22;7044;53.286;8.534;2022-09-09T02:52:38;15.10;99.90
13944;DHT22;7044;53.286;8.534;2022-09-09T02:55:11;15.10;99.90
13944;DHT22;7044;53.286;8.534;2022-09-09T02:57:40;15.00;99.90
13944;DHT22;7044;53.286;8.534;2022-09-09T03:00:10;15.00;99.90
13944;DHT22;7044;53.286;8.534;2022-09-09T03:02:37;15.10;99.90
13944;DHT22;7044;53.286;8.534;2022-09-09T03:05:05;15.00;99.90
13944;DHT22;7044;53.286;8.534;2022-09-09T03:07:32;15.20;99.90
13944;DHT22;7044;53.286;8.534;2022-09-09T03:09:58;15.30;99.90
13944;DHT22;7044;53.286;8.534;2022-09-09T03:12:25;14.90;99.90
13944;DHT22;7044;53.286;8.534;2022-09-09T03:14:52;15.00;99.90
13944;DHT22;7044;53.286;8.534;2022-09-09T03:17:20;15.00;99.90
13944;DHT22;7044;53.286;8.534;2022-09-09T03:19:47;13.30;99.90
13944;DHT22;7044;53.286;8.534;2022-09-09T03:22:15;14.90;99.90
13944;DHT22;7044;53.286;8.534;2022-09-09T03:27:08;14.90;99.90
13944;DHT22;7044;53.286;8.534;2022-09-09T03:29:35;15.00;99.90
13944;DHT22;7044;53.286;8.534;2022-09-09T03:32:02;15.00;99.90
13944;DHT22;7044;53.286;8.534;2022-09-09T03:34:30;14.90;99.90
13944;DHT22;7044;53.286;8.534;2022-09-09T03:36:57;15.10;99.90
13944;DHT22;7044;53.286;8.534;2022-09-09T03:39:24;15.00;99.90
13944;DHT22;7044;53.286;8.534;2022-09-09T03:41:51;15.00;99.90
13944;DHT22;7044;53.286;8.534;2022-09-09T03:44:18;15.00;99.90
13944;DHT22;7044;53.286;8.534;2022-09-09T03:46:44;14.90;99.90
13944;DHT22;7044;53.286;8.534;2022-09-09T03:49:11;15.00;99.90
13944;DHT22;7044;53.286;8.534;2022-09-09T03:51:39;15.10;99.90
13944;DHT22;7044;53.286;8.534;2022-09-09T03:54:06;15.10;99.90
13944;DHT22;7044;53.286;8.534;2022-09-09T03:56:35;15.00;99.90
13944;DHT22;7044;53.286;8.534;2022-09-09T03:59:03;15.00;99.90
13944;DHT22;7044;53.286;8.534;2022-09-09T04:01:29;15.00;99.90
13944;DHT22;7044;53.286;8.534;2022-09-09T04:03:56;15.20;99.90
13944;DHT22;7044;53.286;8.534;2022-09-09T04:06:24;15.00;99.90
13944;DHT22;7044;53.286;8.534;2022-09-09T04:08:52;15.00;99.90
13944;DHT22;7044;53.286;8.534;2022-09-09T04:11:20;14.90;99.90
13944;DHT22;7044;53.286;8.534;2022-09-09T04:13:48;15.10;99.90
13944;DHT22;7044;53.286;8.534;2022-09-09T04:16:15;15.10;99.90
13944;DHT22;7044;53.286;8.534;2022-09-09T04:18:42;15.20;99.90
13944;DHT22;7044;53.286;8.534;2022-09-09T04:21:10;13.60;99.90
13944;DHT22;7044;53.286;8.534;2022-09-09T04:23:37;15.10;99.90
13944;DHT22;7044;53.286;8.534;2022-09-09T04:26:06;15.20;99.90
13944;DHT22;7044;53.286;8.534;2022-09-09T04:28:36;15.30;99.90
13944;DHT22;7044;53.286;8.534;2022-09-09T04:31:07;15.40;99.90
13944;DHT22;7044;53.286;8.534;2022-09-09T04:33:35;15.30;99.90
13944;DHT22;7044;53.286;8.534;2022-09-09T04:36:02;15.40;99.90
13944;DHT22;7044;53.286;8.534;2022-09-09T04:38:29;15.50;99.90
13944;DHT22;7044;53.286;8.534;2022-09-09T04:40:56;15.50;99.90
13944;DHT22;7044;53.286;8.534;2022-09-09T04:43:24;15.50;99.90
13944;DHT22;7044;53.286;8.534;2022-09-09T04:45:53;15.60;99.90
13944;DHT22;7044;53.286;8.534;2022-09-09T04:48:20;15.50;99.90
13944;DHT22;7044;53.286;8.534;2022-09-09T04:50:54;15.60;99.90
13944;DHT22;7044;53.286;8.534;2022-09-09T04:53:22;16.10;99.90
13944;DHT22;7044;53.286;8.534;2022-09-09T04:55:49;15.50;99.90
13944;DHT22;7044;53.286;8.534;2022-09-09T04:58:16;15.50;99.90
13944;DHT22;7044;53.286;8.534;2022-09-09T05:00:45;15.60;99.90
13944;DHT22;7044;53.286;8.534;2022-09-09T05:03:12;15.60;99.90
13944;DHT22;7044;53.286;8.534;2022-09-09T05:05:39;15.60;99.90
13944;DHT22;7044;53.286;8.534;2022-09-09T05:08:07;15.40;99.90
13944;DHT22;7044;53.286;8.534;2022-09-09T05:10:37;15.60;99.90
13944;DHT22;7044;53.286;8.534;2022-09-09T05:13:04;15.40;99.90
13944;DHT22;7044;53.286;8.534;2022-09-09T05:15:31;15.60;99.90
13944;DHT22;7044;53.286;8.534;2022-09-09T05:18:00;15.50;99.90
13944;DHT22;7044;53.286;8.534;2022-09-09T05:20:28;15.40;99.90
13944;DHT22;7044;53.286;8.534;2022-09-09T05:22:55;15.40;99.90
13944;DHT22;7044;53.286;8.534;2022-09-09T05:25:22;15.20;99.90
13944;DHT22;7044;53.286;8.534;2022-09-09T05:27:51;15.30;99.90
13944;DHT22;7044;53.286;8.534;2022-09-09T05:32:47;15.30;99.90
13944;DHT22;7044;53.286;8.534;2022-09-09T05:35:16;15.30;99.90
13944;DHT22;7044;53.286;8.534;2022-09-09T05:37:44;15.20;99.90
13944;DHT22;7044;53.286;8.534;2022-09-09T05:40:12;15.80;99.90
13944;DHT22;7044;53.286;8.534;2022-09-09T05:42:38;15.00;99.90
13944;DHT22;7044;53.286;8.534;2022-09-09T05:45:06;15.10;99.90
13944;DHT22;7044;53.286;8.534;2022-09-09T05:47:34;15.00;99.90
13944;DHT22;7044;53.286;8.534;2022-09-09T05:50:03;15.20;99.90
13944;DHT22;7044;53.286;8.534;2022-09-09T05:52:31;15.20;99.90
13944;DHT22;7044;53.286;8.534;2022-09-09T05:54:58;15.20;99.90
13944;DHT22;7044;53.286;8.534;2022-09-09T05:57:25;15.20;99.90
13944;DHT22;7044;53.286;8.534;2022-09-09T05:59:52;15.10;99.90
13944;DHT22;7044;53.286;8.534;2022-09-09T06:04:47;15.30;99.90
13944;DHT22;7044;53.286;8.534;2022-09-09T06:07:13;15.30;99.90
13944;DHT22;7044;53.286;8.534;2022-09-09T06:09:42;15.40;99.90
13944;DHT22;7044;53.286;8.534;2022-09-09T06:12:09;15.40;99.90
13944;DHT22;7044;53.286;8.534;2022-09-09T06:14:36;15.40;99.90
13944;DHT22;7044;53.286;8.534;2022-09-09T06:17:03;15.60;99.90
13944;DHT22;7044;53.286;8.534;2022-09-09T06:19:30;15.70;99.90
13944;DHT22;7044;53.286;8.534;2022-09-09T06:21:57;15.80;99.90
13944;DHT22;7044;53.286;8.534;2022-09-09T06:24:24;15.90;99.90
13944;DHT22;7044;53.286;8.534;2022-09-09T06:26:52;16.00;99.90
13944;DHT22;7044;53.286;8.534;2022-09-09T06:29:19;16.00;99.90
13944;DHT22;7044;53.286;8.534;2022-09-09T06:31:46;16.00;99.90
13944;DHT22;7044;53.286;8.534;2022-09-09T06:34:13;16.10;99.90
13944;DHT22;7044;53.286;8.534;2022-09-09T06:36:40;17.40;99.90
13944;DHT22;7044;53.286;8.534;2022-09-09T06:39:07;16.20;99.90
13944;DHT22;7044;53.286;8.534;2022-09-09T06:41:36;16.20;99.90
13944;DHT22;7044;53.286;8.534;2022-09-09T06:44:05;16.30;99.90
13944;DHT22;7044;53.286;8.534;2022-09-09T06:49:01;16.30;99.90
13944;DHT22;7044;53.286;8.534;2022-09-09T06:51:29;16.40;99.90
13944;DHT22;7044;53.286;8.534;2022-09-09T06:53:57;16.40;99.90
13944;DHT22;7044;53.286;8.534;2022-09-09T06:56:27;16.50;99.90
13944;DHT22;7044;53.286;8.534;2022-09-09T06:58:55;16.80;99.90
13944;DHT22;7044;53.286;8.534;2022-09-09T07:01:25;16.60;99.90
13944;DHT22;7044;53.286;8.534;2022-09-09T07:03:53;16.80;99.90
13944;DHT22;7044;53.286;8.534;2022-09-09T07:06:22;16.70;99.90
13944;DHT22;7044;53.286;8.534;2022-09-09T07:08:50;16.70;99.90
13944;DHT22;7044;53.286;8.534;2022-09-09T07:11:19;16.80;99.90
13944;DHT22;7044;53.286;8.534;2022-09-09T07:13:46;16.90;99.90
13944;DHT22;7044;53.286;8.534;2022-09-09T07:16:14;17.00;99.90
13944;DHT22;7044;53.286;8.534;2022-09-09T07:18:43;17.10;99.90
13944;DHT22;7044;53.286;8.534;2022-09-09T07:21:11;17.10;99.90
13944;DHT22;7044;53.286;8.534;2022-09-09T07:23:39;17.20;99.90
13944;DHT22;7044;53.286;8.534;2022-09-09T07:26:08;17.20;99.90
13944;DHT22;7044;53.286;8.534;2022-09-09T07:28:36;17.20;99.90
13944;DHT22;7044;53.286;8.534;2022-09-09T07:31:03;17.20;99.90
13944;DHT22;7044;53.286;8.534;2022-09-09T07:33:32;17.30;99.90
13944;DHT22;7044;53.286;8.534;2022-09-09T07:36:05;17.20;99.90
13944;DHT22;7044;53.286;8.534;2022-09-09T07:38:38;17.10;99.90
13944;DHT22;7044;53.286;8.534;2022-09-09T07:41:07;17.20;99.90
13944;DHT22;7044;53.286;8.534;2022-09-09T07:43:37;17.30;99.90
13944;DHT22;7044;53.286;8.534;2022-09-09T07:46:04;17.10;99.90
13944;DHT22;7044;53.286;8.534;2022-09-09T07:48:31;17.10;99.90
13944;DHT22;7044;53.286;8.534;2022-09-09T07:51:11;17.20;99.90
13944;DHT22;7044;53.286;8.534;2022-09-09T07:56:11;17.20;99.90
13944;DHT22;7044;53.286;8.534;2022-09-09T07:58:39;17.20;99.90
13944;DHT22;7044;53.286;8.534;2022-09-09T08:03:35;16.80;99.90
13944;DHT22;7044;53.286;8.534;2022-09-09T08:06:02;17.20;99.90
13944;DHT22;7044;53.286;8.534;2022-09-09T08:08:31;17.30;99.90
13944;DHT22;7044;53.286;8.534;2022-09-09T08:11:05;17.40;99.90
13944;DHT22;7044;53.286;8.534;2022-09-09T08:13:33;17.40;99.90
13944;DHT22;7044;53.286;8.534;2022-09-09T08:16:08;17.40;99.90
13944;DHT22;7044;53.286;8.534;2022-09-09T08:18:35;17.40;99.90
13944;DHT22;7044;53.286;8.534;2022-09-09T08:21:08;17.40;99.90
13944;DHT22;7044;53.286;8.534;2022-09-09T08:23:38;17.40;99.90
13944;DHT22;7044;53.286;8.534;2022-09-09T08:26:09;17.40;99.10
13944;DHT22;7044;53.286;8.534;2022-09-09T08:28:37;17.40;99.90
13944;DHT22;7044;53.286;8.534;2022-09-09T08:31:06;17.40;99.10
13944;DHT22;7044;53.286;8.534;2022-09-09T08:33:33;17.40;99.80
13944;DHT22;7044;53.286;8.534;2022-09-09T08:36:01;17.50;98.20
13944;DHT22;7044;53.286;8.534;2022-09-09T08:38:28;17.60;98.50
13944;DHT22;7044;53.286;8.534;2022-09-09T08:41:09;17.60;97.80
13944;DHT22;7044;53.286;8.534;2022-09-09T08:43:37;17.60;97.70
13944;DHT22;7044;53.286;8.534;2022-09-09T08:46:09;17.80;97.10
13944;DHT22;7044;53.286;8.534;2022-09-09T08:48:46;17.80;97.40
13944;DHT22;7044;53.286;8.534;2022-09-09T08:51:18;17.90;96.20
13944;DHT22;7044;53.286;8.534;2022-09-09T08:53:49;17.90;96.40
13944;DHT22;7044;53.286;8.534;2022-09-09T08:56:23;18.00;96.10
13944;DHT22;7044;53.286;8.534;2022-09-09T08:58:53;18.50;97.20
13944;DHT22;7044;53.286;8.534;2022-09-09T09:01:42;18.00;96.40
13944;DHT22;7044;53.286;8.534;2022-09-09T09:04:28;18.20;95.50
13944;DHT22;7044;53.286;8.534;2022-09-09T09:07:04;18.20;95.70
13944;DHT22;7044;53.286;8.534;2022-09-09T09:09:39;18.20;95.20
13944;DHT22;7044;53.286;8.534;2022-09-09T09:12:16;18.00;94.10
13944;DHT22;7044;53.286;8.534;2022-09-09T09:17:12;18.00;94.00
13944;DHT22;7044;53.286;8.534;2022-09-09T09:19:41;18.20;93.80
13944;DHT22;7044;53.286;8.534;2022-09-09T09:22:16;18.20;93.60
13944;DHT22;7044;53.286;8.534;2022-09-09T09:24:51;18.10;93.10
13944;DHT22;7044;53.286;8.534;2022-09-09T09:27:25;18.10;92.10
13944;DHT22;7044;53.286;8.534;2022-09-09T09:29:59;18.30;92.50
13944;DHT22;7044;53.286;8.534;2022-09-09T09:32:30;18.20;92.00
13944;DHT22;7044;53.286;8.534;2022-09-09T09:34:58;18.30;90.10
13944;DHT22;7044;53.286;8.534;2022-09-09T09:37:31;18.30;87.90
13944;DHT22;7044;53.286;8.534;2022-09-09T09:40:08;18.30;86.60
13944;DHT22;7044;53.286;8.534;2022-09-09T09:42:37;18.50;87.20
13944;DHT22;7044;53.286;8.534;2022-09-09T09:45:12;18.40;86.30
13944;DHT22;7044;53.286;8.534;2022-09-09T09:50:17;18.70;84.60
13944;DHT22;7044;53.286;8.534;2022-09-09T09:52:54;18.70;80.20
13944;DHT22;7044;53.286;8.534;2022-09-09T09:55:21;18.60;78.20
13944;DHT22;7044;53.286;8.534;2022-09-09T09:57:50;18.70;79.20
13944;DHT22;7044;53.286;8.534;2022-09-09T10:00:20;18.70;79.10
13944;DHT22;7044;53.286;8.534;2022-09-09T10:02:48;18.70;78.30
13944;DHT22;7044;53.286;8.534;2022-09-09T10:05:19;18.80;79.30
13944;DHT22;7044;53.286;8.534;2022-09-09T10:07:47;18.70;75.90
13944;DHT22;7044;53.286;8.534;2022-09-09T10:10:31;18.80;74.50
13944;DHT22;7044;53.286;8.534;2022-09-09T10:13:09;18.80;71.00
13944;DHT22;7044;53.286;8.534;2022-09-09T10:15:44;18.70;70.40
13944;DHT22;7044;53.286;8.534;2022-09-09T10:18:36;18.70;73.30
13944;DHT22;7044;53.286;8.534;2022-09-09T10:21:15;18.90;72.20
13944;DHT22;7044;53.286;8.534;2022-09-09T10:24:02;18.70;71.50
13944;DHT22;7044;53.286;8.534;2022-09-09T10:26:39;18.70;71.50
13944;DHT22;7044;53.286;8.534;2022-09-09T10:29:32;18.80;74.10
13944;DHT22;7044;53.286;8.534;2022-09-09T10:32:14;18.80;69.90
13944;DHT22;7044;53.286;8.534;2022-09-09T10:34:56;18.80;65.30
13944;DHT22;7044;53.286;8.534;2022-09-09T10:37:52;18.90;65.40
13944;DHT22;7044;53.286;8.534;2022-09-09T10:40:30;18.70;65.00
13944;DHT22;7044;53.286;8.534;2022-09-09T10:43:04;18.80;64.10
13944;DHT22;7044;53.286;8.534;2022-09-09T10:45:41;18.80;65.00
13944;DHT22;7044;53.286;8.534;2022-09-09T10:48:26;18.80;65.60
13944;DHT22;7044;53.286;8.534;2022-09-09T10:51:02;19.00;63.70
13944;DHT22;7044;53.286;8.534;2022-09-09T10:53:38;19.10;62.60
13944;DHT22;7044;53.286;8.534;2022-09-09T10:56:08;19.30;55.70
13944;DHT22;7044;53.286;8.534;2022-09-09T10:58:41;19.40;55.70
13944;DHT22;7044;53.286;8.534;2022-09-09T11:01:16;19.50;51.20
13944;DHT22;7044;53.286;8.534;2022-09-09T11:03:49;19.50;51.50
13944;DHT22;7044;53.286;8.534;2022-09-09T11:06:20;19.60;51.00
13944;DHT22;7044;53.286;8.534;2022-09-09T11:08:48;19.70;50.60
13944;DHT22;7044;53.286;8.534;2022-09-09T11:11:20;19.10;44.80
13944;DHT22;7044;53.286;8.534;2022-09-09T11:13:53;19.50;41.50
13944;DHT22;7044;53.286;8.534;2022-09-09T11:16:27;19.50;40.40
13944;DHT22;7044;53.286;8.534;2022-09-09T11:18:59;19.50;40.70
13944;DHT22;7044;53.286;8.534;2022-09-09T11:21:30;19.50;40.80
13944;DHT22;7044;53.286;8.534;2022-09-09T11:23:59;19.50;41.40
13944;DHT22;7044;53.286;8.534;2022-09-09T11:26:31;19.50;41.30
13944;DHT22;7044;53.286;8.534;2022-09-09T11:29:27;19.20;42.90
13944;DHT22;7044;53.286;8.534;2022-09-09T11:32:12;19.80;42.90
13944;DHT22;7044;53.286;8.534;2022-09-09T11:37:29;22.40;40.70
13944;DHT22;7044;53.286;8.534;2022-09-09T11:40:14;19.40;37.90
13944;DHT22;7044;53.286;8.534;2022-09-09T11:42:42;19.00;42.30
13944;DHT22;7044;53.286;8.534;2022-09-09T11:45:20;19.30;40.30
13944;DHT22;7044;53.286;8.534;2022-09-09T11:47:55;19.40;41.70
13944;DHT22;7044;53.286;8.534;2022-09-09T11:50:31;19.40;42.40
13944;DHT22;7044;53.286;8.534;2022-09-09T11:53:20;19.60;57.10
13944;DHT22;7044;53.286;8.534;2022-09-09T11:55:59;19.70;60.90
13944;DHT22;7044;53.286;8.534;2022-09-09T11:58:27;19.60;60.00
13944;DHT22;7044;53.286;8.534;2022-09-09T12:00:58;19.80;61.30
13944;DHT22;7044;53.286;8.534;2022-09-09T12:03:35;19.70;57.50
13944;DHT22;7044;53.286;8.534;2022-09-09T12:06:16;20.20;46.70
13944;DHT22;7044;53.286;8.534;2022-09-09T12:08:48;19.60;44.90
13944;DHT22;7044;53.286;8.534;2022-09-09T12:11:28;19.50;44.30
13944;DHT22;7044;53.286;8.534;2022-09-09T12:13:57;19.40;41.90
13944;DHT22;7044;53.286;8.534;2022-09-09T12:16:30;19.20;43.40
13944;DHT22;7044;53.286;8.534;2022-09-09T12:19:14;19.30;41.70
13944;DHT22;7044;53.286;8.534;2022-09-09T12:21:46;19.30;41.40
13944;DHT22;7044;53.286;8.534;2022-09-09T12:24:21;19.40;43.70
13944;DHT22;7044;53.286;8.534;2022-09-09T12:26:56;19.40;43.40
13944;DHT22;7044;53.286;8.534;2022-09-09T12:29:29;19.30;41.20
13944;DHT22;7044;53.286;8.534;2022-09-09T12:32:03;19.30;42.20
13944;DHT22;7044;53.286;8.534;2022-09-09T12:34:39;19.30;42.50
13944;DHT22;7044;53.286;8.534;2022-09-09T12:37:14;19.50;47.70
13944;DHT22;7044;53.286;8.534;2022-09-09T12:39:45;19.30;42.10
13944;DHT22;7044;53.286;8.534;2022-09-09T12:42:18;19.10;38.80
13944;DHT22;7044;53.286;8.534;2022-09-09T12:44:56;19.20;38.30
13944;DHT22;7044;53.286;8.534;2022-09-09T12:47:28;18.80;42.10
13944;DHT22;7044;53.286;8.534;2022-09-09T12:49:58;19.30;42.50
13944;DHT22;7044;53.286;8.534;2022-09-09T12:52:28;19.40;42.30
13944;DHT22;7044;53.286;8.534;2022-09-09T12:54:57;19.30;43.30
13944;DHT22;7044;53.286;8.534;2022-09-09T12:57:26;19.30;44.30
13944;DHT22;7044;53.286;8.534;2022-09-09T13:00:11;19.30;44.60
13944;DHT22;7044;53.286;8.534;2022-09-09T13:02:47;19.30;43.80
13944;DHT22;7044;53.286;8.534;2022-09-09T13:05:20;19.30;45.60
13944;DHT22;7044;53.286;8.534;2022-09-09T13:07:48;19.40;45.50
13944;DHT22;7044;53.286;8.534;2022-09-09T13:10:24;19.30;44.60
13944;DHT22;7044;53.286;8.534;2022-09-09T13:12:52;19.40;44.00
13944;DHT22;7044;53.286;8.534;2022-09-09T13:15:21;19.30;43.80
13944;DHT22;7044;53.286;8.534;2022-09-09T13:17:51;19.30;46.90
13944;DHT22;7044;53.286;8.534;2022-09-09T13:20:21;19.40;46.50
13944;DHT22;7044;53.286;8.534;2022-09-09T13:22:49;19.20;48.00
13944;DHT22;7044;53.286;8.534;2022-09-09T13:25:21;19.30;49.30
13944;DHT22;7044;53.286;8.534;2022-09-09T13:28:01;23.90;53.30
13944;DHT22;7044;53.286;8.534;2022-09-09T13:30:31;19.20;45.30
13944;DHT22;7044;53.286;8.534;2022-09-09T13:33:21;19.40;39.70
13944;DHT22;7044;53.286;8.534;2022-09-09T13:35:53;19.10;38.40
13944;DHT22;7044;53.286;8.534;2022-09-09T13:38:20;18.80;33.80
13944;DHT22;7044;53.286;8.534;2022-09-09T13:40:55;19.00;32.40
13944;DHT22;7044;53.286;8.534;2022-09-09T13:43:24;18.90;28.50
13944;DHT22;7044;53.286;8.534;2022-09-09T13:45:56;18.90;28.00
13944;DHT22;7044;53.286;8.534;2022-09-09T13:48:24;19.00;25.30
13944;DHT22;7044;53.286;8.534;2022-09-09T13:50:59;18.80;26.10
13944;DHT22;7044;53.286;8.534;2022-09-09T13:53:26;18.90;21.10
13944;DHT22;7044;53.286;8.534;2022-09-09T13:55:53;18.70;17.50
13944;DHT22;7044;53.286;8.534;2022-09-09T13:58:20;18.70;14.30
13944;DHT22;7044;53.286;8.534;2022-09-09T14:00:48;18.50;20.40
13944;DHT22;7044;53.286;8.534;2022-09-09T14:03:15;18.10;22.20
13944;DHT22;7044;53.286;8.534;2022-09-09T14:05:43;18.40;22.20
13944;DHT22;7044;53.286;8.534;2022-09-09T14:08:19;18.30;26.00
13944;DHT22;7044;53.286;8.534;2022-09-09T14:10:47;18.20;39.30
13944;DHT22;7044;53.286;8.534;2022-09-09T14:13:14;18.20;43.10
13944;DHT22;7044;53.286;8.534;2022-09-09T14:15:41;17.90;49.40
13944;DHT22;7044;53.286;8.534;2022-09-09T14:18:11;18.20;52.70
13944;DHT22;7044;53.286;8.534;2022-09-09T14:20:38;18.10;51.90
13944;DHT22;7044;53.286;8.534;2022-09-09T14:25:33;18.10;63.50
13944;DHT22;7044;53.286;8.534;2022-09-09T14:28:00;18.10;68.60
13944;DHT22;7044;53.286;8.534;2022-09-09T14:30:28;18.10;72.60
13944;DHT22;7044;53.286;8.534;2022-09-09T14:32:54;18.10;76.70
13944;DHT22;7044;53.286;8.534;2022-09-09T14:35:21;18.10;76.60
13944;DHT22;7044;53.286;8.534;2022-09-09T14:37:48;18.20;81.10
13944;DHT22;7044;53.286;8.534;2022-09-09T14:40:15;18.10;82.10
13944;DHT22;7044;53.286;8.534;2022-09-09T14:42:43;18.10;83.60
13944;DHT22;7044;53.286;8.534;2022-09-09T14:45:11;18.90;91.20
13944;DHT22;7044;53.286;8.534;2022-09-09T14:47:38;18.20;89.30
13944;DHT22;7044;53.286;8.534;2022-09-09T14:50:05;18.30;92.80
13944;DHT22;7044;53.286;8.534;2022-09-09T14:52:33;18.20;92.20
13944;DHT22;7044;53.286;8.534;2022-09-09T14:55:00;18.20;94.30
13944;DHT22;7044;53.286;8.534;2022-09-09T14:57:27;16.90;93.30
13944;DHT22;7044;53.286;8.534;2022-09-09T14:59:55;18.40;94.60
13944;DHT22;7044;53.286;8.534;2022-09-09T15:02:22;18.50;96.00
13944;DHT22;7044;53.286;8.534;2022-09-09T15:04:49;18.40;96.00
13944;DHT22;7044;53.286;8.534;2022-09-09T15:07:16;18.40;96.40
13944;DHT22;7044;53.286;8.534;2022-09-09T15:09:44;18.50;96.30
13944;DHT22;7044;53.286;8.534;2022-09-09T15:12:13;18.50;96.80
13944;DHT22;7044;53.286;8.534;2022-09-09T15:14:39;18.30;96.50
13944;DHT22;7044;53.286;8.534;2022-09-09T15:17:08;18.60;96.40
13944;DHT22;7044;53.286;8.534;2022-09-09T15:22:02;18.50;95.80
13944;DHT22;7044;53.286;8.534;2022-09-09T15:26:57;18.50;95.90
13944;DHT22;7044;53.286;8.534;2022-09-09T15:29:24;18.60;97.40
13944;DHT22;7044;53.286;8.534;2022-09-09T15:31:53;18.50;97.10
13944;DHT22;7044;53.286;8.534;2022-09-09T15:34:21;18.50;97.60
13944;DHT22;7044;53.286;8.534;2022-09-09T15:36:48;18.60;97.70
13944;DHT22;7044;53.286;8.534;2022-09-09T15:39:16;19.50;99.30
13944;DHT22;7044;53.286;8.534;2022-09-09T15:41:44;18.50;98.20
13944;DHT22;7044;53.286;8.534;2022-09-09T15:44:12;18.50;98.90
13944;DHT22;7044;53.286;8.534;2022-09-09T15:46:40;18.50;98.80
13944;DHT22;7044;53.286;8.534;2022-09-09T15:49:09;18.50;99.90
13944;DHT22;7044;53.286;8.534;2022-09-09T15:51:39;18.50;98.80
13944;DHT22;7044;53.286;8.534;2022-09-09T15:54:08;18.50;98.80
13944;DHT22;7044;53.286;8.534;2022-09-09T15:59:03;18.50;99.10
13944;DHT22;7044;53.286;8.534;2022-09-09T16:01:30;18.50;99.80
13944;DHT22;7044;53.286;8.534;2022-09-09T16:03:58;18.50;99.90
13944;DHT22;7044;53.286;8.534;2022-09-09T16:06:26;18.50;99.90
13944;DHT22;7044;53.286;8.534;2022-09-09T16:08:56;18.50;99.20
13944;DHT22;7044;53.286;8.534;2022-09-09T16:11:25;18.50;99.00
13944;DHT22;7044;53.286;8.534;2022-09-09T16:13:53;18.50;98.70
13944;DHT22;7044;53.286;8.534;2022-09-09T16:16:22;18.40;98.20
13944;DHT22;7044;53.286;8.534;2022-09-09T16:18:51;21.10;99.90
13944;DHT22;7044;53.286;8.534;2022-09-09T16:21:21;18.40;98.30
13944;DHT22;7044;53.286;8.534;2022-09-09T16:23:50;18.40;98.00
13944;DHT22;7044;53.286;8.534;2022-09-09T16:26:21;18.40;97.80
13944;DHT22;7044;53.286;8.534;2022-09-09T16:28:47;17.50;97.00
13944;DHT22;7044;53.286;8.534;2022-09-09T16:31:17;18.40;97.70
13944;DHT22;7044;53.286;8.534;2022-09-09T16:33:45;18.10;98.80
13944;DHT22;7044;53.286;8.534;2022-09-09T16:36:16;18.50;96.80
13944;DHT22;7044;53.286;8.534;2022-09-09T16:38:43;18.30;96.70
13944;DHT22;7044;53.286;8.534;2022-09-09T16:41:11;18.30;97.20